sensor_id;sensor_type;location;lat;lon;timestamp;P1;durP1;ratioP1;P2;durP2;ratioP2
17953;SDS011;9102;53.548;9.926;2023-07-09T00:00:53;5.60;;;2.42;;
17953;SDS011;9102;53.548;9.926;2023-07-09T00:03:21;6.03;;;2.30;;
17953;SDS011;9102;53.548;9.926;2023-07-09T00:05:48;7.78;;;2.30;;
17953;SDS011;9102;53.548;9.926;2023-07-09T00:08:21;7.97;;;2.38;;
17953;SDS011;9102;53.548;9.926;2023-07-09T00:10:54;5.55;;;2.50;;
17953;SDS011;9102;53.548;9.926;2023-07-09T00:13:21;6.82;;;2.35;;
17953;SDS011;9102;53.548;9.926;2023-07-09T00:15:48;5.63;;;2.13;;
17953;SDS011;9102;53.548;9.926;2023-07-09T00:18:15;5.43;;;2.55;;
17953;SDS011;9102;53.548;9.926;2023-07-09T00:20:42;5.47;;;2.80;;
17953;SDS011;9102;53.548;9.926;2023-07-09T00:23:09;7.88;;;2.85;;
17953;SDS011;9102;53.548;9.926;2023-07-09T00:25:38;5.70;;;2.28;;
17953;SDS011;9102;53.548;9.926;2023-07-09T00:28:09;4.78;;;2.47;;
17953;SDS011;9102;53.548;9.926;2023-07-09T00:30:39;5.20;;;2.60;;
17953;SDS011;9102;53.548;9.926;2023-07-09T00:33:06;6.22;;;2.25;;
17953;SDS011;9102;53.548;9.926;2023-07-09T00:35:37;6.28;;;2.30;;
17953;SDS011;9102;53.548;9.926;2023-07-09T00:38:05;3.92;;;2.50;;
17953;SDS011;9102;53.548;9.926;2023-07-09T00:40:33;5.80;;;2.80;;
17953;SDS011;9102;53.548;9.926;2023-07-09T00:43:00;7.53;;;2.63;;
17953;SDS011;9102;53.548;9.926;2023-07-09T00:45:29;4.20;;;2.55;;
17953;SDS011;9102;53.548;9.926;2023-07-09T00:47:58;6.13;;;2.72;;
17953;SDS011;9102;53.548;9.926;2023-07-09T00:50:33;6.72;;;2.95;;
17953;SDS011;9102;53.548;9.926;2023-07-09T00:53:08;5.97;;;2.47;;
17953;SDS011;9102;53.548;9.926;2023-07-09T00:55:38;5.53;;;2.42;;
17953;SDS011;9102;53.548;9.926;2023-07-09T00:58:09;5.53;;;3.25;;
17953;SDS011;9102;53.548;9.926;2023-07-09T01:00:43;3.15;;;2.40;;
17953;SDS011;9102;53.548;9.926;2023-07-09T01:03:13;3.35;;;2.38;;
17953;SDS011;9102;53.548;9.926;2023-07-09T01:05:46;4.40;;;2.50;;
17953;SDS011;9102;53.548;9.926;2023-07-09T01:08:16;5.32;;;2.30;;
17953;SDS011;9102;53.548;9.926;2023-07-09T01:10:44;5.47;;;2.40;;
17953;SDS011;9102;53.548;9.926;2023-07-09T01:13:11;9.50;;;2.63;;
17953;SDS011;9102;53.548;9.926;2023-07-09T01:15:38;4.05;;;2.50;;
17953;SDS011;9102;53.548;9.926;2023-07-09T01:18:07;6.47;;;2.80;;
17953;SDS011;9102;53.548;9.926;2023-07-09T01:20:35;4.75;;;2.45;;
17953;SDS011;9102;53.548;9.926;2023-07-09T01:23:06;6.05;;;2.20;;
17953;SDS011;9102;53.548;9.926;2023-07-09T01:25:33;4.80;;;2.10;;
17953;SDS011;9102;53.548;9.926;2023-07-09T01:28:02;5.43;;;2.40;;
17953;SDS011;9102;53.548;9.926;2023-07-09T01:30:30;7.28;;;2.03;;
17953;SDS011;9102;53.548;9.926;2023-07-09T01:32:59;4.07;;;2.40;;
17953;SDS011;9102;53.548;9.926;2023-07-09T01:35:27;4.53;;;2.20;;
17953;SDS011;9102;53.548;9.926;2023-07-09T01:37:56;6.18;;;2.40;;
17953;SDS011;9102;53.548;9.926;2023-07-09T01:40:25;7.07;;;2.72;;
17953;SDS011;9102;53.548;9.926;2023-07-09T01:42:54;2.35;;;2.10;;
17953;SDS011;9102;53.548;9.926;2023-07-09T01:45:23;4.45;;;2.72;;
17953;SDS011;9102;53.548;9.926;2023-07-09T01:47:50;8.32;;;2.83;;
17953;SDS011;9102;53.548;9.926;2023-07-09T01:50:18;6.47;;;3.63;;
17953;SDS011;9102;53.548;9.926;2023-07-09T01:52:45;6.30;;;2.67;;
17953;SDS011;9102;53.548;9.926;2023-07-09T01:55:15;8.45;;;2.60;;
17953;SDS011;9102;53.548;9.926;2023-07-09T01:57:44;4.03;;;2.33;;
17953;SDS011;9102;53.548;9.926;2023-07-09T02:00:12;4.50;;;2.15;;
17953;SDS011;9102;53.548;9.926;2023-07-09T02:02:40;9.02;;;2.40;;
17953;SDS011;9102;53.548;9.926;2023-07-09T02:05:09;7.43;;;2.22;;
17953;SDS011;9102;53.548;9.926;2023-07-09T02:07:56;3.70;;;2.20;;
17953;SDS011;9102;53.548;9.926;2023-07-09T02:10:23;4.13;;;2.40;;
17953;SDS011;9102;53.548;9.926;2023-07-09T02:12:51;4.32;;;2.47;;
17953;SDS011;9102;53.548;9.926;2023-07-09T02:15:18;6.72;;;2.40;;
17953;SDS011;9102;53.548;9.926;2023-07-09T02:17:45;7.90;;;2.92;;
17953;SDS011;9102;53.548;9.926;2023-07-09T02:20:12;8.07;;;2.97;;
17953;SDS011;9102;53.548;9.926;2023-07-09T02:22:40;5.95;;;2.72;;
17953;SDS011;9102;53.548;9.926;2023-07-09T02:25:08;6.60;;;3.05;;
17953;SDS011;9102;53.548;9.926;2023-07-09T02:27:35;3.67;;;2.63;;
17953;SDS011;9102;53.548;9.926;2023-07-09T02:30:05;3.10;;;2.25;;
17953;SDS011;9102;53.548;9.926;2023-07-09T02:32:32;6.05;;;2.78;;
17953;SDS011;9102;53.548;9.926;2023-07-09T02:34:59;8.57;;;2.88;;
17953;SDS011;9102;53.548;9.926;2023-07-09T02:37:26;3.38;;;2.40;;
17953;SDS011;9102;53.548;9.926;2023-07-09T02:39:53;4.15;;;2.40;;
17953;SDS011;9102;53.548;9.926;2023-07-09T02:42:21;5.10;;;2.35;;
17953;SDS011;9102;53.548;9.926;2023-07-09T02:44:49;5.13;;;2.58;;
17953;SDS011;9102;53.548;9.926;2023-07-09T02:47:17;3.72;;;2.65;;
17953;SDS011;9102;53.548;9.926;2023-07-09T02:49:45;7.25;;;3.00;;
17953;SDS011;9102;53.548;9.926;2023-07-09T02:52:11;5.68;;;2.40;;
17953;SDS011;9102;53.548;9.926;2023-07-09T02:54:38;6.75;;;2.95;;
17953;SDS011;9102;53.548;9.926;2023-07-09T02:57:05;4.50;;;2.10;;
17953;SDS011;9102;53.548;9.926;2023-07-09T02:59:32;4.70;;;2.80;;
17953;SDS011;9102;53.548;9.926;2023-07-09T03:02:00;5.85;;;2.70;;
17953;SDS011;9102;53.548;9.926;2023-07-09T03:04:29;4.93;;;2.70;;
17953;SDS011;9102;53.548;9.926;2023-07-09T03:06:56;6.35;;;3.10;;
17953;SDS011;9102;53.548;9.926;2023-07-09T03:09:24;9.27;;;3.03;;
17953;SDS011;9102;53.548;9.926;2023-07-09T03:11:51;4.47;;;2.92;;
17953;SDS011;9102;53.548;9.926;2023-07-09T03:14:18;7.18;;;3.30;;
17953;SDS011;9102;53.548;9.926;2023-07-09T03:16:45;6.20;;;3.35;;
17953;SDS011;9102;53.548;9.926;2023-07-09T03:19:12;6.70;;;3.47;;
17953;SDS011;9102;53.548;9.926;2023-07-09T03:21:40;6.45;;;3.10;;
17953;SDS011;9102;53.548;9.926;2023-07-09T03:24:07;6.68;;;3.13;;
17953;SDS011;9102;53.548;9.926;2023-07-09T03:26:34;6.25;;;2.63;;
17953;SDS011;9102;53.548;9.926;2023-07-09T03:29:01;4.18;;;2.60;;
17953;SDS011;9102;53.548;9.926;2023-07-09T03:31:28;4.13;;;2.42;;
17953;SDS011;9102;53.548;9.926;2023-07-09T03:33:54;4.90;;;2.75;;
17953;SDS011;9102;53.548;9.926;2023-07-09T03:36:21;7.60;;;2.50;;
17953;SDS011;9102;53.548;9.926;2023-07-09T03:38:49;6.40;;;2.72;;
17953;SDS011;9102;53.548;9.926;2023-07-09T03:41:16;7.15;;;2.72;;
17953;SDS011;9102;53.548;9.926;2023-07-09T03:43:43;7.05;;;2.78;;
17953;SDS011;9102;53.548;9.926;2023-07-09T03:46:10;4.07;;;2.67;;
17953;SDS011;9102;53.548;9.926;2023-07-09T03:48:37;5.85;;;3.55;;
17953;SDS011;9102;53.548;9.926;2023-07-09T03:51:04;4.40;;;2.70;;
17953;SDS011;9102;53.548;9.926;2023-07-09T03:53:31;5.70;;;2.80;;
17953;SDS011;9102;53.548;9.926;2023-07-09T03:55:59;5.50;;;2.40;;
17953;SDS011;9102;53.548;9.926;2023-07-09T03:58:26;4.13;;;2.53;;
17953;SDS011;9102;53.548;9.926;2023-07-09T04:00:53;4.72;;;2.97;;
17953;SDS011;9102;53.548;9.926;2023-07-09T04:03:21;5.15;;;2.90;;
17953;SDS011;9102;53.548;9.926;2023-07-09T04:05:48;8.88;;;2.83;;
17953;SDS011;9102;53.548;9.926;2023-07-09T04:08:15;4.60;;;2.67;;
17953;SDS011;9102;53.548;9.926;2023-07-09T04:10:42;4.70;;;2.83;;
17953;SDS011;9102;53.548;9.926;2023-07-09T04:13:10;5.38;;;2.70;;
17953;SDS011;9102;53.548;9.926;2023-07-09T04:15:37;4.57;;;2.53;;
17953;SDS011;9102;53.548;9.926;2023-07-09T04:18:04;4.70;;;2.53;;
17953;SDS011;9102;53.548;9.926;2023-07-09T04:20:31;4.10;;;2.70;;
17953;SDS011;9102;53.548;9.926;2023-07-09T04:22:59;4.40;;;2.63;;
17953;SDS011;9102;53.548;9.926;2023-07-09T04:25:26;6.35;;;3.25;;
17953;SDS011;9102;53.548;9.926;2023-07-09T04:27:53;6.75;;;3.40;;
17953;SDS011;9102;53.548;9.926;2023-07-09T04:30:21;5.88;;;2.65;;
17953;SDS011;9102;53.548;9.926;2023-07-09T04:32:48;4.78;;;2.60;;
17953;SDS011;9102;53.548;9.926;2023-07-09T04:35:15;5.63;;;2.75;;
17953;SDS011;9102;53.548;9.926;2023-07-09T04:37:42;7.22;;;2.95;;
17953;SDS011;9102;53.548;9.926;2023-07-09T04:40:09;6.05;;;2.83;;
17953;SDS011;9102;53.548;9.926;2023-07-09T04:42:37;6.13;;;2.80;;
17953;SDS011;9102;53.548;9.926;2023-07-09T04:45:05;4.68;;;2.42;;
17953;SDS011;9102;53.548;9.926;2023-07-09T04:47:35;5.85;;;2.78;;
17953;SDS011;9102;53.548;9.926;2023-07-09T04:50:02;4.05;;;2.22;;
17953;SDS011;9102;53.548;9.926;2023-07-09T04:52:29;6.13;;;2.67;;
17953;SDS011;9102;53.548;9.926;2023-07-09T04:54:57;6.10;;;2.67;;
17953;SDS011;9102;53.548;9.926;2023-07-09T04:57:24;6.07;;;2.80;;
17953;SDS011;9102;53.548;9.926;2023-07-09T04:59:53;6.85;;;2.83;;
17953;SDS011;9102;53.548;9.926;2023-07-09T05:02:20;6.00;;;2.85;;
17953;SDS011;9102;53.548;9.926;2023-07-09T05:04:49;6.80;;;2.67;;
17953;SDS011;9102;53.548;9.926;2023-07-09T05:07:16;4.63;;;2.33;;
17953;SDS011;9102;53.548;9.926;2023-07-09T05:09:43;3.90;;;2.50;;
17953;SDS011;9102;53.548;9.926;2023-07-09T05:12:10;5.00;;;2.80;;
17953;SDS011;9102;53.548;9.926;2023-07-09T05:14:37;4.60;;;2.50;;
17953;SDS011;9102;53.548;9.926;2023-07-09T05:17:04;6.32;;;2.58;;
17953;SDS011;9102;53.548;9.926;2023-07-09T05:19:31;7.10;;;2.45;;
17953;SDS011;9102;53.548;9.926;2023-07-09T05:22:00;4.93;;;2.78;;
17953;SDS011;9102;53.548;9.926;2023-07-09T05:24:26;5.80;;;2.65;;
17953;SDS011;9102;53.548;9.926;2023-07-09T05:26:53;5.32;;;2.75;;
17953;SDS011;9102;53.548;9.926;2023-07-09T05:29:20;8.18;;;3.08;;
17953;SDS011;9102;53.548;9.926;2023-07-09T05:31:47;5.18;;;2.47;;
17953;SDS011;9102;53.548;9.926;2023-07-09T05:34:14;6.65;;;2.67;;
17953;SDS011;9102;53.548;9.926;2023-07-09T05:36:41;4.55;;;2.78;;
17953;SDS011;9102;53.548;9.926;2023-07-09T05:39:09;4.40;;;2.75;;
17953;SDS011;9102;53.548;9.926;2023-07-09T05:41:36;4.38;;;2.55;;
17953;SDS011;9102;53.548;9.926;2023-07-09T05:44:03;4.10;;;2.72;;
17953;SDS011;9102;53.548;9.926;2023-07-09T05:46:33;8.52;;;2.83;;
17953;SDS011;9102;53.548;9.926;2023-07-09T05:49:01;4.72;;;2.97;;
17953;SDS011;9102;53.548;9.926;2023-07-09T05:51:29;7.57;;;3.08;;
17953;SDS011;9102;53.548;9.926;2023-07-09T05:53:56;6.13;;;2.95;;
17953;SDS011;9102;53.548;9.926;2023-07-09T05:56:24;6.18;;;2.75;;
17953;SDS011;9102;53.548;9.926;2023-07-09T05:58:51;8.80;;;3.53;;
17953;SDS011;9102;53.548;9.926;2023-07-09T06:01:18;9.38;;;3.63;;
17953;SDS011;9102;53.548;9.926;2023-07-09T06:03:45;6.90;;;3.38;;
17953;SDS011;9102;53.548;9.926;2023-07-09T06:06:12;8.07;;;3.38;;
17953;SDS011;9102;53.548;9.926;2023-07-09T06:08:39;6.53;;;3.22;;
17953;SDS011;9102;53.548;9.926;2023-07-09T06:11:06;5.95;;;3.22;;
17953;SDS011;9102;53.548;9.926;2023-07-09T06:13:35;5.78;;;3.15;;
17953;SDS011;9102;53.548;9.926;2023-07-09T06:16:02;5.43;;;3.15;;
17953;SDS011;9102;53.548;9.926;2023-07-09T06:18:29;6.25;;;2.58;;
17953;SDS011;9102;53.548;9.926;2023-07-09T06:20:57;6.60;;;3.03;;
17953;SDS011;9102;53.548;9.926;2023-07-09T06:23:26;6.10;;;3.00;;
17953;SDS011;9102;53.548;9.926;2023-07-09T06:25:53;6.60;;;2.72;;
17953;SDS011;9102;53.548;9.926;2023-07-09T06:28:21;6.57;;;3.03;;
17953;SDS011;9102;53.548;9.926;2023-07-09T06:30:50;3.92;;;2.40;;
17953;SDS011;9102;53.548;9.926;2023-07-09T06:33:18;4.45;;;2.92;;
17953;SDS011;9102;53.548;9.926;2023-07-09T06:35:46;5.38;;;2.88;;
17953;SDS011;9102;53.548;9.926;2023-07-09T06:38:14;3.90;;;3.30;;
17953;SDS011;9102;53.548;9.926;2023-07-09T06:40:41;6.80;;;3.55;;
17953;SDS011;9102;53.548;9.926;2023-07-09T06:43:07;5.95;;;3.30;;
17953;SDS011;9102;53.548;9.926;2023-07-09T06:45:34;7.00;;;3.40;;
17953;SDS011;9102;53.548;9.926;2023-07-09T06:48:03;5.32;;;2.63;;
17953;SDS011;9102;53.548;9.926;2023-07-09T06:50:32;15.30;;;3.20;;
17953;SDS011;9102;53.548;9.926;2023-07-09T06:52:59;4.32;;;2.75;;
17953;SDS011;9102;53.548;9.926;2023-07-09T06:55:26;4.70;;;2.70;;
17953;SDS011;9102;53.548;9.926;2023-07-09T06:57:53;11.70;;;3.30;;
17953;SDS011;9102;53.548;9.926;2023-07-09T07:00:21;4.65;;;3.15;;
17953;SDS011;9102;53.548;9.926;2023-07-09T07:02:48;6.22;;;3.10;;
17953;SDS011;9102;53.548;9.926;2023-07-09T07:05:17;4.95;;;3.20;;
17953;SDS011;9102;53.548;9.926;2023-07-09T07:07:44;6.07;;;2.90;;
17953;SDS011;9102;53.548;9.926;2023-07-09T07:10:11;6.60;;;2.97;;
17953;SDS011;9102;53.548;9.926;2023-07-09T07:12:41;4.57;;;2.88;;
17953;SDS011;9102;53.548;9.926;2023-07-09T07:15:10;5.05;;;3.08;;
17953;SDS011;9102;53.548;9.926;2023-07-09T07:17:38;4.85;;;3.00;;
17953;SDS011;9102;53.548;9.926;2023-07-09T07:20:05;3.83;;;2.97;;
17953;SDS011;9102;53.548;9.926;2023-07-09T07:22:34;6.57;;;3.45;;
17953;SDS011;9102;53.548;9.926;2023-07-09T07:25:01;5.45;;;3.20;;
17953;SDS011;9102;53.548;9.926;2023-07-09T07:27:28;3.90;;;2.72;;
17953;SDS011;9102;53.548;9.926;2023-07-09T07:29:55;13.52;;;3.42;;
17953;SDS011;9102;53.548;9.926;2023-07-09T07:32:22;7.90;;;3.30;;
17953;SDS011;9102;53.548;9.926;2023-07-09T07:34:49;6.93;;;2.95;;
17953;SDS011;9102;53.548;9.926;2023-07-09T07:37:17;9.65;;;3.38;;
17953;SDS011;9102;53.548;9.926;2023-07-09T07:39:47;5.93;;;2.80;;
17953;SDS011;9102;53.548;9.926;2023-07-09T07:42:14;9.18;;;3.17;;
17953;SDS011;9102;53.548;9.926;2023-07-09T07:44:41;5.78;;;3.15;;
17953;SDS011;9102;53.548;9.926;2023-07-09T07:47:07;6.30;;;2.90;;
17953;SDS011;9102;53.548;9.926;2023-07-09T07:49:34;5.25;;;3.15;;
17953;SDS011;9102;53.548;9.926;2023-07-09T07:52:01;4.90;;;2.95;;
17953;SDS011;9102;53.548;9.926;2023-07-09T07:54:28;6.25;;;3.17;;
17953;SDS011;9102;53.548;9.926;2023-07-09T07:56:57;6.25;;;3.15;;
17953;SDS011;9102;53.548;9.926;2023-07-09T07:59:24;7.40;;;3.25;;
17953;SDS011;9102;53.548;9.926;2023-07-09T08:01:51;6.30;;;3.53;;
17953;SDS011;9102;53.548;9.926;2023-07-09T08:04:18;6.35;;;3.35;;
17953;SDS011;9102;53.548;9.926;2023-07-09T08:06:45;7.47;;;3.58;;
17953;SDS011;9102;53.548;9.926;2023-07-09T08:09:12;6.50;;;3.03;;
17953;SDS011;9102;53.548;9.926;2023-07-09T08:11:38;6.53;;;3.25;;
17953;SDS011;9102;53.548;9.926;2023-07-09T08:14:07;6.85;;;3.42;;
17953;SDS011;9102;53.548;9.926;2023-07-09T08:16:33;4.97;;;3.40;;
17953;SDS011;9102;53.548;9.926;2023-07-09T08:19:01;4.32;;;3.45;;
17953;SDS011;9102;53.548;9.926;2023-07-09T08:21:27;8.93;;;3.67;;
17953;SDS011;9102;53.548;9.926;2023-07-09T08:23:54;8.05;;;3.25;;
17953;SDS011;9102;53.548;9.926;2023-07-09T08:26:21;5.85;;;3.10;;
17953;SDS011;9102;53.548;9.926;2023-07-09T08:28:49;5.93;;;3.65;;
17953;SDS011;9102;53.548;9.926;2023-07-09T08:31:17;5.05;;;3.20;;
17953;SDS011;9102;53.548;9.926;2023-07-09T08:33:44;7.93;;;3.78;;
17953;SDS011;9102;53.548;9.926;2023-07-09T08:36:11;5.47;;;3.42;;
17953;SDS011;9102;53.548;9.926;2023-07-09T08:38:38;7.03;;;3.38;;
17953;SDS011;9102;53.548;9.926;2023-07-09T08:41:07;6.82;;;3.80;;
17953;SDS011;9102;53.548;9.926;2023-07-09T08:43:39;5.88;;;3.70;;
17953;SDS011;9102;53.548;9.926;2023-07-09T08:46:16;5.13;;;3.58;;
17953;SDS011;9102;53.548;9.926;2023-07-09T08:48:48;5.85;;;3.38;;
17953;SDS011;9102;53.548;9.926;2023-07-09T08:51:18;6.45;;;3.40;;
17953;SDS011;9102;53.548;9.926;2023-07-09T08:53:51;7.30;;;3.63;;
17953;SDS011;9102;53.548;9.926;2023-07-09T08:56:22;7.05;;;3.25;;
17953;SDS011;9102;53.548;9.926;2023-07-09T08:58:50;6.95;;;4.18;;
17953;SDS011;9102;53.548;9.926;2023-07-09T09:01:23;5.38;;;3.20;;
17953;SDS011;9102;53.548;9.926;2023-07-09T09:03:53;4.88;;;3.42;;
17953;SDS011;9102;53.548;9.926;2023-07-09T09:06:25;5.40;;;3.63;;
17953;SDS011;9102;53.548;9.926;2023-07-09T09:08:59;7.50;;;3.47;;
17953;SDS011;9102;53.548;9.926;2023-07-09T09:11:33;5.22;;;3.65;;
17953;SDS011;9102;53.548;9.926;2023-07-09T09:14:19;4.28;;;3.22;;
17953;SDS011;9102;53.548;9.926;2023-07-09T09:16:53;5.63;;;3.67;;
17953;SDS011;9102;53.548;9.926;2023-07-09T09:19:22;4.18;;;3.25;;
17953;SDS011;9102;53.548;9.926;2023-07-09T09:21:54;5.22;;;3.28;;
17953;SDS011;9102;53.548;9.926;2023-07-09T09:24:27;4.95;;;3.85;;
17953;SDS011;9102;53.548;9.926;2023-07-09T09:26:58;8.18;;;3.55;;
17953;SDS011;9102;53.548;9.926;2023-07-09T09:29:25;4.93;;;3.95;;
17953;SDS011;9102;53.548;9.926;2023-07-09T09:31:55;6.13;;;3.30;;
17953;SDS011;9102;53.548;9.926;2023-07-09T09:34:24;4.88;;;3.45;;
17953;SDS011;9102;53.548;9.926;2023-07-09T09:36:53;4.53;;;3.50;;
17953;SDS011;9102;53.548;9.926;2023-07-09T09:39:20;5.50;;;3.55;;
17953;SDS011;9102;53.548;9.926;2023-07-09T09:41:51;5.38;;;3.30;;
17953;SDS011;9102;53.548;9.926;2023-07-09T09:44:20;4.97;;;3.40;;
17953;SDS011;9102;53.548;9.926;2023-07-09T09:46:49;5.82;;;3.78;;
17953;SDS011;9102;53.548;9.926;2023-07-09T09:49:18;8.80;;;3.90;;
17953;SDS011;9102;53.548;9.926;2023-07-09T09:51:45;7.38;;;4.00;;
17953;SDS011;9102;53.548;9.926;2023-07-09T09:54:15;7.45;;;3.97;;
17953;SDS011;9102;53.548;9.926;2023-07-09T09:56:55;5.10;;;3.60;;
17953;SDS011;9102;53.548;9.926;2023-07-09T09:59:24;5.43;;;3.03;;
17953;SDS011;9102;53.548;9.926;2023-07-09T10:01:59;7.90;;;3.75;;
17953;SDS011;9102;53.548;9.926;2023-07-09T10:04:29;4.60;;;3.47;;
17953;SDS011;9102;53.548;9.926;2023-07-09T10:06:56;8.35;;;4.65;;
17953;SDS011;9102;53.548;9.926;2023-07-09T10:09:41;5.68;;;4.15;;
17953;SDS011;9102;53.548;9.926;2023-07-09T10:12:13;5.00;;;3.80;;
17953;SDS011;9102;53.548;9.926;2023-07-09T10:14:51;7.68;;;4.22;;
17953;SDS011;9102;53.548;9.926;2023-07-09T10:17:28;4.97;;;3.45;;
17953;SDS011;9102;53.548;9.926;2023-07-09T10:20:07;4.35;;;3.60;;
17953;SDS011;9102;53.548;9.926;2023-07-09T10:22:47;5.10;;;3.85;;
17953;SDS011;9102;53.548;9.926;2023-07-09T10:25:20;6.72;;;3.85;;
17953;SDS011;9102;53.548;9.926;2023-07-09T10:28:02;5.32;;;3.70;;
17953;SDS011;9102;53.548;9.926;2023-07-09T10:30:57;4.85;;;3.75;;
17953;SDS011;9102;53.548;9.926;2023-07-09T10:33:36;6.25;;;3.78;;
17953;SDS011;9102;53.548;9.926;2023-07-09T10:36:19;10.18;;;4.00;;
17953;SDS011;9102;53.548;9.926;2023-07-09T10:38:58;7.05;;;5.05;;
17953;SDS011;9102;53.548;9.926;2023-07-09T10:41:30;4.82;;;3.60;;
17953;SDS011;9102;53.548;9.926;2023-07-09T10:44:00;7.70;;;3.90;;
17953;SDS011;9102;53.548;9.926;2023-07-09T10:46:34;6.50;;;4.22;;
17953;SDS011;9102;53.548;9.926;2023-07-09T10:49:04;6.68;;;3.67;;
17953;SDS011;9102;53.548;9.926;2023-07-09T10:51:39;10.10;;;3.63;;
17953;SDS011;9102;53.548;9.926;2023-07-09T10:54:10;7.15;;;4.40;;
17953;SDS011;9102;53.548;9.926;2023-07-09T10:56:41;7.85;;;4.38;;
17953;SDS011;9102;53.548;9.926;2023-07-09T10:59:14;4.78;;;3.60;;
17953;SDS011;9102;53.548;9.926;2023-07-09T11:01:49;5.15;;;4.28;;
17953;SDS011;9102;53.548;9.926;2023-07-09T11:04:23;4.32;;;3.70;;
17953;SDS011;9102;53.548;9.926;2023-07-09T11:06:57;8.02;;;4.25;;
17953;SDS011;9102;53.548;9.926;2023-07-09T11:09:31;6.13;;;4.10;;
17953;SDS011;9102;53.548;9.926;2023-07-09T11:12:01;5.18;;;3.60;;
17953;SDS011;9102;53.548;9.926;2023-07-09T11:14:32;7.53;;;4.15;;
17953;SDS011;9102;53.548;9.926;2023-07-09T11:17:04;6.65;;;3.92;;
17953;SDS011;9102;53.548;9.926;2023-07-09T11:19:40;4.63;;;3.75;;
17953;SDS011;9102;53.548;9.926;2023-07-09T11:22:15;8.30;;;4.72;;
17953;SDS011;9102;53.548;9.926;2023-07-09T11:24:44;9.10;;;4.68;;
17953;SDS011;9102;53.548;9.926;2023-07-09T11:27:16;5.45;;;4.35;;
17953;SDS011;9102;53.548;9.926;2023-07-09T11:29:45;8.15;;;4.53;;
17953;SDS011;9102;53.548;9.926;2023-07-09T11:32:17;5.10;;;3.75;;
17953;SDS011;9102;53.548;9.926;2023-07-09T11:34:45;5.72;;;4.13;;
17953;SDS011;9102;53.548;9.926;2023-07-09T11:37:13;6.57;;;3.90;;
17953;SDS011;9102;53.548;9.926;2023-07-09T11:39:43;8.18;;;4.28;;
17953;SDS011;9102;53.548;9.926;2023-07-09T11:42:24;6.20;;;4.18;;
17953;SDS011;9102;53.548;9.926;2023-07-09T11:44:54;7.63;;;4.05;;
17953;SDS011;9102;53.548;9.926;2023-07-09T11:47:27;7.05;;;4.47;;
17953;SDS011;9102;53.548;9.926;2023-07-09T11:50:00;5.78;;;3.85;;
17953;SDS011;9102;53.548;9.926;2023-07-09T11:52:37;6.28;;;3.85;;
17953;SDS011;9102;53.548;9.926;2023-07-09T11:55:21;5.95;;;3.78;;
17953;SDS011;9102;53.548;9.926;2023-07-09T11:57:53;4.40;;;3.53;;
17953;SDS011;9102;53.548;9.926;2023-07-09T12:00:24;7.10;;;4.10;;
17953;SDS011;9102;53.548;9.926;2023-07-09T12:02:53;6.88;;;3.60;;
17953;SDS011;9102;53.548;9.926;2023-07-09T12:05:29;4.90;;;3.80;;
17953;SDS011;9102;53.548;9.926;2023-07-09T12:08:00;7.55;;;3.90;;
17953;SDS011;9102;53.548;9.926;2023-07-09T12:10:32;7.40;;;4.90;;
17953;SDS011;9102;53.548;9.926;2023-07-09T12:26:31;5.63;;;4.22;;
17953;SDS011;9102;53.548;9.926;2023-07-09T12:29:02;5.25;;;3.90;;
17953;SDS011;9102;53.548;9.926;2023-07-09T12:31:31;5.50;;;3.70;;
17953;SDS011;9102;53.548;9.926;2023-07-09T12:33:58;7.68;;;4.15;;
17953;SDS011;9102;53.548;9.926;2023-07-09T12:36:25;6.18;;;4.97;;
17953;SDS011;9102;53.548;9.926;2023-07-09T12:38:56;9.82;;;4.45;;
17953;SDS011;9102;53.548;9.926;2023-07-09T12:41:28;6.40;;;4.78;;
17953;SDS011;9102;53.548;9.926;2023-07-09T12:44:00;7.47;;;4.47;;
17953;SDS011;9102;53.548;9.926;2023-07-09T12:46:27;6.55;;;4.22;;
17953;SDS011;9102;53.548;9.926;2023-07-09T12:48:54;5.38;;;3.47;;
17953;SDS011;9102;53.548;9.926;2023-07-09T12:51:22;6.00;;;3.85;;
17953;SDS011;9102;53.548;9.926;2023-07-09T12:53:59;6.22;;;3.80;;
17953;SDS011;9102;53.548;9.926;2023-07-09T12:56:27;10.73;;;4.57;;
17953;SDS011;9102;53.548;9.926;2023-07-09T13:02:18;5.70;;;4.07;;
17953;SDS011;9102;53.548;9.926;2023-07-09T13:04:46;6.97;;;4.22;;
17953;SDS011;9102;53.548;9.926;2023-07-09T13:07:24;5.50;;;4.10;;
17953;SDS011;9102;53.548;9.926;2023-07-09T13:09:53;7.68;;;4.22;;
17953;SDS011;9102;53.548;9.926;2023-07-09T13:12:27;5.88;;;4.32;;
17953;SDS011;9102;53.548;9.926;2023-07-09T13:14:56;5.05;;;4.10;;
17953;SDS011;9102;53.548;9.926;2023-07-09T13:17:27;8.07;;;4.10;;
17953;SDS011;9102;53.548;9.926;2023-07-09T13:19:55;6.30;;;4.32;;
17953;SDS011;9102;53.548;9.926;2023-07-09T13:22:22;6.18;;;4.10;;
17953;SDS011;9102;53.548;9.926;2023-07-09T13:24:49;5.15;;;3.70;;
17953;SDS011;9102;53.548;9.926;2023-07-09T13:27:16;7.10;;;4.28;;
17953;SDS011;9102;53.548;9.926;2023-07-09T13:29:43;9.02;;;4.72;;
17953;SDS011;9102;53.548;9.926;2023-07-09T13:32:11;8.30;;;5.10;;
17953;SDS011;9102;53.548;9.926;2023-07-09T13:34:41;4.97;;;3.78;;
17953;SDS011;9102;53.548;9.926;2023-07-09T13:37:09;6.20;;;4.25;;
17953;SDS011;9102;53.548;9.926;2023-07-09T13:39:38;4.85;;;3.90;;
17953;SDS011;9102;53.548;9.926;2023-07-09T13:42:08;5.57;;;4.18;;
17953;SDS011;9102;53.548;9.926;2023-07-09T13:44:38;5.78;;;3.78;;
17953;SDS011;9102;53.548;9.926;2023-07-09T13:47:08;8.10;;;4.25;;
17953;SDS011;9102;53.548;9.926;2023-07-09T13:49:41;5.50;;;4.35;;
17953;SDS011;9102;53.548;9.926;2023-07-09T13:52:09;3.88;;;3.47;;
17953;SDS011;9102;53.548;9.926;2023-07-09T13:54:41;7.88;;;4.32;;
17953;SDS011;9102;53.548;9.926;2023-07-09T13:57:13;6.78;;;4.68;;
17953;SDS011;9102;53.548;9.926;2023-07-09T13:59:41;5.53;;;4.40;;
17953;SDS011;9102;53.548;9.926;2023-07-09T14:02:15;5.60;;;4.15;;
17953;SDS011;9102;53.548;9.926;2023-07-09T14:04:49;7.72;;;4.30;;
17953;SDS011;9102;53.548;9.926;2023-07-09T14:07:26;4.88;;;4.13;;
17953;SDS011;9102;53.548;9.926;2023-07-09T14:09:54;6.80;;;4.68;;
17953;SDS011;9102;53.548;9.926;2023-07-09T14:12:21;6.35;;;4.43;;
17953;SDS011;9102;53.548;9.926;2023-07-09T14:14:49;4.82;;;4.18;;
17953;SDS011;9102;53.548;9.926;2023-07-09T14:17:17;5.97;;;4.15;;
17953;SDS011;9102;53.548;9.926;2023-07-09T14:19:44;15.15;;;4.47;;
17953;SDS011;9102;53.548;9.926;2023-07-09T14:22:20;5.60;;;4.28;;
17953;SDS011;9102;53.548;9.926;2023-07-09T14:24:51;5.20;;;3.78;;
17953;SDS011;9102;53.548;9.926;2023-07-09T14:27:18;5.30;;;3.85;;
17953;SDS011;9102;53.548;9.926;2023-07-09T14:29:44;6.97;;;4.40;;
17953;SDS011;9102;53.548;9.926;2023-07-09T14:32:27;5.65;;;4.00;;
17953;SDS011;9102;53.548;9.926;2023-07-09T14:34:58;8.68;;;4.13;;
17953;SDS011;9102;53.548;9.926;2023-07-09T14:37:27;7.05;;;4.72;;
17953;SDS011;9102;53.548;9.926;2023-07-09T14:39:54;5.47;;;4.10;;
17953;SDS011;9102;53.548;9.926;2023-07-09T14:42:21;6.40;;;4.40;;
17953;SDS011;9102;53.548;9.926;2023-07-09T14:44:48;5.65;;;4.68;;
17953;SDS011;9102;53.548;9.926;2023-07-09T14:47:17;6.28;;;4.40;;
17953;SDS011;9102;53.548;9.926;2023-07-09T14:49:45;7.30;;;4.55;;
17953;SDS011;9102;53.548;9.926;2023-07-09T14:52:13;5.97;;;4.05;;
17953;SDS011;9102;53.548;9.926;2023-07-09T14:54:44;9.50;;;4.55;;
17953;SDS011;9102;53.548;9.926;2023-07-09T14:57:16;7.50;;;4.70;;
17953;SDS011;9102;53.548;9.926;2023-07-09T14:59:45;5.95;;;4.13;;
17953;SDS011;9102;53.548;9.926;2023-07-09T15:02:23;7.28;;;4.85;;
17953;SDS011;9102;53.548;9.926;2023-07-09T15:05:01;6.63;;;4.57;;
17953;SDS011;9102;53.548;9.926;2023-07-09T15:07:29;7.28;;;4.53;;
17953;SDS011;9102;53.548;9.926;2023-07-09T15:09:59;6.05;;;4.70;;
17953;SDS011;9102;53.548;9.926;2023-07-09T15:12:27;6.50;;;4.90;;
17953;SDS011;9102;53.548;9.926;2023-07-09T15:15:00;9.05;;;5.47;;
17953;SDS011;9102;53.548;9.926;2023-07-09T15:17:32;7.50;;;4.63;;
17953;SDS011;9102;53.548;9.926;2023-07-09T15:19:58;7.82;;;4.65;;
17953;SDS011;9102;53.548;9.926;2023-07-09T15:22:27;4.93;;;4.28;;
17953;SDS011;9102;53.548;9.926;2023-07-09T15:24:58;6.40;;;4.45;;
17953;SDS011;9102;53.548;9.926;2023-07-09T15:27:25;5.78;;;4.43;;
17953;SDS011;9102;53.548;9.926;2023-07-09T15:29:52;5.72;;;4.35;;